Time;durP1;ratioP1;P1;durP2;ratioP2;P2;SDS_P1;SDS_P2;PMS_P1;PMS_P2;Temp;Humidity;BMP_temperature;BMP_pressure;BME280_temperature;BME280_humidity;BME280_pressure;Samples;Min_cycle;Max_cycle;Signal;HPM_P1;HPM_P2
2022/08/29 03:02:28;;;;;;;;;;;24.90;50.40;;;;;;4927958;23;45592;-61
2022/08/29 03:04:54;;;;;;;;;;;24.90;50.40;;;;;;4857932;29;46818;-61
2022/08/29 03:07:19;;;;;;;;;;;24.90;50.50;;;;;;4871610;29;44923;-62
2022/08/29 03:09:45;;;;;;;;;;;24.90;50.40;;;;;;4867820;28;45173;-62
2022/08/29 03:12:10;;;;;;;;;;;24.90;50.40;;;;;;4845552;29;45223;-62
2022/08/29 03:14:36;;;;;;;;;;;24.90;50.30;;;;;;4865605;29;45384;-62
2022/08/29 03:17:02;;;;;;;;;;;24.90;50.30;;;;;;4859952;29;45257;-62
2022/08/29 03:19:27;;;;;;;;;;;24.90;50.20;;;;;;4864483;29;44838;-62
2022/08/29 03:21:53;;;;;;;;;;;24.90;50.30;;;;;;4868644;29;45661;-62
2022/08/29 03:24:18;;;;;;;;;;;24.90;50.20;;;;;;4867848;29;46400;-62
2022/08/29 03:26:44;;;;;;;;;;;24.90;50.20;;;;;;4865622;29;45040;-62
2022/08/29 03:29:10;;;;;;;;;;;24.90;50.30;;;;;;4863760;29;45282;-62
2022/08/29 03:31:35;;;;;;;;;;;24.90;50.30;;;;;;4851318;29;45157;-62
2022/08/29 03:34:01;;;;;;;;;;;24.90;50.20;;;;;;4864474;29;46721;-62
2022/08/29 03:36:27;;;;;;;;;;;24.90;50.20;;;;;;4850783;29;45102;-62
2022/08/29 03:38:52;;;;;;;;;;;24.90;50.20;;;;;;4867980;29;44979;-62
2022/08/29 03:41:18;;;;;;;;;;;24.90;50.10;;;;;;4865646;29;44966;-62
2022/08/29 03:43:44;;;;;;;;;;;24.90;50.20;;;;;;4865551;29;45588;-62
2022/08/29 03:46:09;;;;;;;;;;;24.90;50.10;;;;;;4866554;29;45166;-62
2022/08/29 03:48:35;;;;;;;;;;;24.90;50.20;;;;;;4861756;29;44708;-62
2022/08/29 03:51:01;;;;;;;;;;;24.90;50.10;;;;;;4863595;29;45031;-62
2022/08/29 03:53:27;;;;;;;;;;;24.90;50.10;;;;;;4866545;29;45696;-62
2022/08/29 03:55:52;;;;;;;;;;;24.80;50.10;;;;;;4850655;29;44992;-62
2022/08/29 03:58:18;;;;;;;;;;;24.80;50.10;;;;;;4865796;29;45321;-62
2022/08/29 04:00:45;;;;;;;;;;;24.80;50.20;;;;;;4863626;29;45262;-62
2022/08/29 04:03:11;;;;;;;;;;;24.80;50.20;;;;;;4867464;29;45529;-62
2022/08/29 04:05:36;;;;;;;;;;;24.80;50.20;;;;;;4849615;29;45446;-65
2022/08/29 04:08:02;;;;;;;;;;;24.80;50.30;;;;;;4848076;29;45023;-62
2022/08/29 04:10:29;;;;;;;;;;;24.80;50.20;;;;;;4864013;29;45224;-62
2022/08/29 04:12:54;;;;;;;;;;;24.80;50.20;;;;;;4866704;29;45466;-62
2022/08/29 04:15:20;;;;;;;;;;;24.80;50.20;;;;;;4867941;29;45627;-62
2022/08/29 04:17:45;;;;;;;;;;;24.80;50.20;;;;;;4868629;29;45042;-62
2022/08/29 04:20:11;;;;;;;;;;;24.80;50.10;;;;;;4868463;29;45320;-62
2022/08/29 04:22:38;;;;;;;;;;;24.80;50.10;;;;;;4864229;29;45337;-62
2022/08/29 04:25:04;;;;;;;;;;;24.80;50.10;;;;;;4848661;29;45156;-62
2022/08/29 04:27:30;;;;;;;;;;;24.80;50.10;;;;;;4868515;29;44939;-62
2022/08/29 04:29:55;;;;;;;;;;;24.80;50.00;;;;;;4868208;29;45044;-62
2022/08/29 04:32:21;;;;;;;;;;;24.80;50.10;;;;;;4863594;29;46140;-62
2022/08/29 04:34:46;;;;;;;;;;;24.80;50.10;;;;;;4851042;29;45060;-63
2022/08/29 04:37:12;;;;;;;;;;;24.80;50.70;;;;;;4868123;29;45298;-61
2022/08/29 04:39:38;;;;;;;;;;;24.70;50.10;;;;;;4863646;29;45113;-63
2022/08/29 04:42:03;;;;;;;;;;;24.70;50.00;;;;;;4867838;29;45661;-62
2022/08/29 04:44:29;;;;;;;;;;;24.70;50.10;;;;;;4867425;29;44973;-62
2022/08/29 04:46:54;;;;;;;;;;;24.70;50.00;;;;;;4863340;29;45332;-62
2022/08/29 04:49:20;;;;;;;;;;;24.70;50.00;;;;;;4865292;29;45008;-62
2022/08/29 04:51:45;;;;;;;;;;;24.70;50.00;;;;;;4849413;29;47972;-61
2022/08/29 04:54:11;;;;;;;;;;;24.70;49.90;;;;;;4864242;29;45149;-61
2022/08/29 04:56:37;;;;;;;;;;;24.60;49.90;;;;;;4866541;29;45235;-61
2022/08/29 04:59:02;;;;;;;;;;;24.60;50.00;;;;;;4833608;29;45277;-61
2022/08/29 05:01:28;;;;;;;;;;;24.60;50.00;;;;;;4863897;29;45588;-61
2022/08/29 05:03:54;;;;;;;;;;;24.60;49.90;;;;;;4863453;29;45292;-61
2022/08/29 05:06:20;;;;;;;;;;;24.50;49.90;;;;;;4864473;29;45033;-61
2022/08/29 05:08:46;;;;;;;;;;;24.60;49.80;;;;;;4862889;29;45317;-61
2022/08/29 05:11:13;;;;;;;;;;;24.60;49.70;;;;;;4863343;29;45906;-58
2022/08/29 05:13:38;;;;;;;;;;;24.60;49.70;;;;;;4864394;29;45226;-62
2022/08/29 05:16:05;;;;;;;;;;;24.60;49.80;;;;;;4847529;29;45164;-61
2022/08/29 05:18:30;;;;;;;;;;;24.50;49.70;;;;;;4865443;29;45203;-61
2022/08/29 05:20:56;;;;;;;;;;;24.50;49.70;;;;;;4864857;29;45993;-62
2022/08/29 05:23:21;;;;;;;;;;;24.50;49.70;;;;;;4864976;29;45134;-62
2022/08/29 05:25:53;;;;;;;;;;;24.50;49.70;;;;;;4864610;29;45006;-62
2022/08/29 05:28:18;;;;;;;;;;;24.40;49.80;;;;;;4862816;29;45637;-61
2022/08/29 05:30:44;;;;;;;;;;;24.40;49.70;;;;;;4861481;29;46145;-62
2022/08/29 05:33:09;;;;;;;;;;;24.40;49.70;;;;;;4860917;29;45017;-62
2022/08/29 05:35:35;;;;;;;;;;;24.40;49.60;;;;;;4865240;29;44991;-61
2022/08/29 05:38:00;;;;;;;;;;;24.40;49.70;;;;;;4865959;29;45188;-62
2022/08/29 05:40:26;;;;;;;;;;;24.40;49.70;;;;;;4863225;29;47023;-62
2022/08/29 05:42:51;;;;;;;;;;;24.30;49.70;;;;;;4864180;29;45316;-61
2022/08/29 05:45:17;;;;;;;;;;;24.40;49.60;;;;;;4861767;29;45172;-62
2022/08/29 05:47:42;;;;;;;;;;;24.40;49.50;;;;;;4866079;29;45032;-62
2022/08/29 05:50:10;;;;;;;;;;;24.40;49.60;;;;;;4865457;29;46037;-62
2022/08/29 05:52:36;;;;;;;;;;;24.40;49.60;;;;;;4851104;29;44975;-61
2022/08/29 05:55:01;;;;;;;;;;;24.50;49.40;;;;;;4867752;29;44992;-62
2022/08/29 05:57:27;;;;;;;;;;;24.50;49.30;;;;;;4866000;29;45006;-61
2022/08/29 05:59:52;;;;;;;;;;;24.50;49.20;;;;;;4867857;29;45232;-62
2022/08/29 06:02:18;;;;;;;;;;;24.60;49.10;;;;;;4869550;29;44960;-61
2022/08/29 06:04:44;;;;;;;;;;;24.60;49.00;;;;;;4851060;29;45546;-61
2022/08/29 06:07:10;;;;;;;;;;;24.60;49.00;;;;;;4866428;29;45815;-61
2022/08/29 06:09:36;;;;;;;;;;;24.70;48.90;;;;;;4852294;29;47387;-61
2022/08/29 06:12:01;;;;;;;;;;;24.70;48.80;;;;;;4874590;28;45045;-61
2022/08/29 06:14:27;;;;;;;;;;;24.70;49.00;;;;;;4868186;28;45265;-61
2022/08/29 06:16:53;;;;;;;;;;;24.70;48.90;;;;;;4852901;29;44984;-61
2022/08/29 06:19:18;;;;;;;;;;;24.70;48.80;;;;;;4872821;28;46132;-61
2022/08/29 06:21:44;;;;;;;;;;;24.80;48.80;;;;;;4871203;28;45005;-61
2022/08/29 06:24:09;;;;;;;;;;;24.80;48.80;;;;;;4869410;28;46380;-61
2022/08/29 06:26:35;;;;;;;;;;;24.80;48.80;;;;;;4868799;29;45055;-61
2022/08/29 06:29:04;;;;;;;;;;;24.80;48.80;;;;;;4869494;29;45792;-60
2022/08/29 06:31:30;;;;;;;;;;;24.70;49.00;;;;;;4867760;29;44965;-62
2022/08/29 06:33:57;;;;;;;;;;;24.60;49.30;;;;;;4867006;29;45423;-62
2022/08/29 06:36:26;;;;;;;;;;;24.50;49.40;;;;;;4871530;29;45564;-61
2022/08/29 06:38:51;;;;;;;;;;;24.50;49.50;;;;;;4870263;28;45416;-61
2022/08/29 06:41:17;;;;;;;;;;;24.40;49.60;;;;;;4870058;28;45455;-62
2022/08/29 06:43:43;;;;;;;;;;;24.40;49.60;;;;;;4871237;29;45228;-61
2022/08/29 06:46:09;;;;;;;;;;;24.40;49.60;;;;;;4869101;29;44882;-61
2022/08/29 06:48:34;;;;;;;;;;;24.50;49.50;;;;;;4867349;29;45813;-61
2022/08/29 06:51:00;;;;;;;;;;;24.50;49.30;;;;;;4869664;28;45037;-60
2022/08/29 06:53:27;;;;;;;;;;;24.50;49.30;;;;;;4868897;28;44957;-61
2022/08/29 06:55:53;;;;;;;;;;;24.50;49.40;;;;;;4868476;28;45425;-61
2022/08/29 06:58:18;;;;;;;;;;;24.50;49.30;;;;;;4868789;29;46565;-60
2022/08/29 07:00:44;;;;;;;;;;;24.50;49.40;;;;;;4855657;29;45048;-61
2022/08/29 07:03:09;;;;;;;;;;;24.50;49.40;;;;;;4884348;29;45002;-62
2022/08/29 07:05:35;;;;;;;;;;;24.50;49.40;;;;;;4886612;29;44909;-62
2022/08/29 07:08:00;;;;;;;;;;;24.50;49.20;;;;;;4888017;29;46002;-61
2022/08/29 07:10:26;;;;;;;;;;;24.50;49.20;;;;;;4885762;28;45025;-61
2022/08/29 07:12:51;;;;;;;;;;;24.50;49.20;;;;;;4886269;29;45257;-62
2022/08/29 07:15:17;;;;;;;;;;;24.60;49.20;;;;;;4884116;28;45122;-62
2022/08/29 07:17:43;;;;;;;;;;;24.60;49.20;;;;;;4884234;28;45200;-61
2022/08/29 07:20:09;;;;;;;;;;;24.50;49.00;;;;;;4868905;29;45218;-61
2022/08/29 07:22:34;;;;;;;;;;;24.50;49.10;;;;;;4867854;29;45613;-61
2022/08/29 07:25:00;;;;;;;;;;;24.60;49.10;;;;;;4882620;28;45647;-62
2022/08/29 07:27:25;;;;;;;;;;;24.60;49.00;;;;;;4885202;29;46082;-61
2022/08/29 07:29:51;;;;;;;;;;;24.60;48.90;;;;;;4886501;29;45164;-62
2022/08/29 07:32:16;;;;;;;;;;;24.70;48.90;;;;;;4881130;28;45083;-62
2022/08/29 07:34:42;;;;;;;;;;;24.70;48.90;;;;;;4885302;28;45111;-61
2022/08/29 07:37:09;;;;;;;;;;;24.80;48.80;;;;;;4884188;29;45243;-62
2022/08/29 07:39:34;;;;;;;;;;;24.80;48.70;;;;;;4885516;28;44969;-62
2022/08/29 07:42:00;;;;;;;;;;;24.80;48.80;;;;;;4886587;29;44745;-62
2022/08/29 07:44:25;;;;;;;;;;;24.80;48.60;;;;;;4883207;28;44977;-63
2022/08/29 07:46:55;;;;;;;;;;;24.80;48.60;;;;;;4886203;29;46083;-61
2022/08/29 07:49:21;;;;;;;;;;;24.90;48.60;;;;;;4868975;29;44913;-62
2022/08/29 07:51:46;;;;;;;;;;;24.90;48.40;;;;;;4885392;28;45213;-62
2022/08/29 07:54:15;;;;;;;;;;;24.90;48.40;;;;;;4882187;28;45136;-62
2022/08/29 07:56:41;;;;;;;;;;;24.90;48.40;;;;;;4885839;28;45018;-61
2022/08/29 07:59:06;;;;;;;;;;;25.00;48.30;;;;;;4886946;28;45273;-61
2022/08/29 08:01:32;;;;;;;;;;;25.00;48.20;;;;;;4876874;29;45047;-62
2022/08/29 08:03:57;;;;;;;;;;;25.00;48.10;;;;;;4869766;28;45423;-61
2022/08/29 08:06:23;;;;;;;;;;;25.00;48.10;;;;;;4869798;28;45667;-61
2022/08/29 08:08:49;;;;;;;;;;;25.00;48.00;;;;;;4869497;29;45105;-62
2022/08/29 08:11:15;;;;;;;;;;;25.10;48.50;;;;;;4869332;29;44876;-61
2022/08/29 08:13:40;;;;;;;;;;;25.10;47.80;;;;;;4868632;29;45057;-61
2022/08/29 08:16:07;;;;;;;;;;;25.20;47.80;;;;;;4867830;29;46213;-62
2022/08/29 08:18:33;;;;;;;;;;;25.20;47.70;;;;;;4867889;29;44994;-62
2022/08/29 08:20:58;;;;;;;;;;;25.20;47.60;;;;;;4869973;28;44820;-61
2022/08/29 08:23:24;;;;;;;;;;;25.20;47.50;;;;;;4851573;29;45048;-62
2022/08/29 08:25:50;;;;;;;;;;;25.30;47.60;;;;;;4867744;29;45192;-62
2022/08/29 08:28:16;;;;;;;;;;;25.30;47.50;;;;;;4848755;29;45325;-62
2022/08/29 08:30:41;;;;;;;;;;;25.30;47.50;;;;;;4866353;29;45339;-61
2022/08/29 08:33:07;;;;;;;;;;;25.30;47.40;;;;;;4870408;28;44752;-62
2022/08/29 08:35:33;;;;;;;;;;;25.40;47.40;;;;;;4868294;29;45327;-61
2022/08/29 08:37:58;;;;;;;;;;;25.40;47.40;;;;;;4851201;29;45060;-61
2022/08/29 08:40:26;;;;;;;;;;;25.40;47.30;;;;;;4868228;28;45011;-62
2022/08/29 08:42:53;;;;;;;;;;;25.40;47.20;;;;;;4870668;29;45893;-62
2022/08/29 08:45:21;;;;;;;;;;;25.40;47.30;;;;;;4862716;28;46754;-62
2022/08/29 08:47:51;;;;;;;;;;;25.40;47.10;;;;;;4860917;29;45030;-62
2022/08/29 08:50:22;;;;;;;;;;;25.50;47.20;;;;;;4864629;28;45086;-61
2022/08/29 08:52:51;;;;;;;;;;;25.50;47.20;;;;;;4851074;29;44880;-61
2022/08/29 08:55:16;;;;;;;;;;;25.50;47.10;;;;;;4866753;29;45387;-62
2022/08/29 08:57:48;;;;;;;;;;;25.50;46.90;;;;;;4868735;29;45348;-62
2022/08/29 09:00:14;;;;;;;;;;;25.50;46.80;;;;;;4849664;29;45327;-62
2022/08/29 09:02:44;;;;;;;;;;;25.60;46.80;;;;;;4867803;29;44785;-62
2022/08/29 09:05:18;;;;;;;;;;;25.50;46.70;;;;;;4846826;29;46030;-62
2022/08/29 09:07:50;;;;;;;;;;;25.60;46.80;;;;;;4865310;29;44962;-61
2022/08/29 09:10:35;;;;;;;;;;;25.60;46.60;;;;;;4864432;29;44974;-62
2022/08/29 09:13:08;;;;;;;;;;;25.60;46.70;;;;;;4865742;29;44990;-62
2022/08/29 09:15:52;;;;;;;;;;;25.60;46.70;;;;;;4861899;29;46592;-62
2022/08/29 09:18:36;;;;;;;;;;;25.60;46.50;;;;;;4863333;29;45838;-62
2022/08/29 09:21:05;;;;;;;;;;;25.70;46.50;;;;;;4847824;29;45068;-62
2022/08/29 09:23:34;;;;;;;;;;;25.70;46.40;;;;;;4864536;29;44929;-62
2022/08/29 09:26:00;;;;;;;;;;;25.70;46.50;;;;;;4864033;29;45576;-62
2022/08/29 09:28:25;;;;;;;;;;;25.70;46.40;;;;;;4859371;29;45253;-62
2022/08/29 09:31:23;;;;;;;;;;;25.70;46.30;;;;;;4862701;29;45029;-62
2022/08/29 09:33:53;;;;;;;;;;;25.70;46.40;;;;;;4850494;29;44997;-62
2022/08/29 09:36:35;;;;;;;;;;;25.70;46.30;;;;;;4860255;29;45640;-61
2022/08/29 09:39:16;;;;;;;;;;;25.70;46.30;;;;;;4861971;29;45204;-62
2022/08/29 09:41:42;;;;;;;;;;;25.70;46.40;;;;;;4862583;29;45278;-62
2022/08/29 09:44:10;;;;;;;;;;;25.70;46.40;;;;;;4845884;29;44930;-62
2022/08/29 09:46:36;;;;;;;;;;;25.80;46.40;;;;;;4859028;29;46192;-62
2022/08/29 09:49:01;;;;;;;;;;;25.80;46.30;;;;;;4860536;29;45348;-62
2022/08/29 09:51:30;;;;;;;;;;;25.80;46.20;;;;;;4856900;29;45289;-62
2022/08/29 09:54:14;;;;;;;;;;;25.80;46.30;;;;;;4858138;29;45425;-62
2022/08/29 09:56:52;;;;;;;;;;;25.80;46.30;;;;;;4862521;29;45308;-62
2022/08/29 09:59:22;;;;;;;;;;;25.80;46.40;;;;;;4860627;29;45008;-62
2022/08/29 10:01:48;;;;;;;;;;;25.80;46.40;;;;;;4865157;29;45217;-63
2022/08/29 10:04:15;;;;;;;;;;;25.80;46.30;;;;;;4864353;29;44958;-63
2022/08/29 10:06:40;;;;;;;;;;;25.80;46.30;;;;;;4849147;29;47092;-63
2022/08/29 10:09:07;;;;;;;;;;;25.90;46.30;;;;;;4866127;29;44941;-62
2022/08/29 10:11:35;;;;;;;;;;;25.90;46.30;;;;;;4865352;29;44893;-63
2022/08/29 10:14:02;;;;;;;;;;;26.00;46.40;;;;;;4866898;29;44981;-63
2022/08/29 10:16:47;;;;;;;;;;;25.90;46.30;;;;;;4864039;29;45427;-62
2022/08/29 10:19:14;;;;;;;;;;;26.00;46.60;;;;;;4867126;29;45200;-62
2022/08/29 10:21:46;;;;;;;;;;;26.00;46.40;;;;;;4862811;29;45019;-63
2022/08/29 10:24:18;;;;;;;;;;;26.00;46.60;;;;;;4865833;29;45273;-62
2022/08/29 10:26:50;;;;;;;;;;;26.00;46.50;;;;;;4865682;29;45327;-63
2022/08/29 10:29:30;;;;;;;;;;;26.10;46.60;;;;;;4865167;29;45258;-62
2022/08/29 10:32:00;;;;;;;;;;;26.10;46.50;;;;;;4861829;29;44723;-62
2022/08/29 10:34:29;;;;;;;;;;;26.10;46.40;;;;;;4848035;29;45201;-63
2022/08/29 10:36:57;;;;;;;;;;;26.10;46.40;;;;;;4867705;29;45350;-62
2022/08/29 10:39:41;;;;;;;;;;;26.10;46.30;;;;;;4866593;29;45139;-63
2022/08/29 10:42:08;;;;;;;;;;;26.20;46.20;;;;;;4868104;29;44983;-63
2022/08/29 10:44:44;;;;;;;;;;;26.20;46.50;;;;;;4863757;29;45287;-64
2022/08/29 10:47:14;;;;;;;;;;;26.20;46.40;;;;;;4850834;29;45725;-63
2022/08/29 10:49:54;;;;;;;;;;;26.20;46.20;;;;;;4851575;29;45283;-63
2022/08/29 10:52:40;;;;;;;;;;;26.20;46.20;;;;;;4869041;29;44964;-64
2022/08/29 10:55:09;;;;;;;;;;;26.30;46.20;;;;;;4866686;29;44948;-63
2022/08/29 10:57:53;;;;;;;;;;;26.30;46.20;;;;;;4868117;29;46770;-63
2022/08/29 11:00:23;;;;;;;;;;;26.40;46.10;;;;;;4868062;29;44985;-63
2022/08/29 11:03:27;;;;;;;;;;;26.40;46.00;;;;;;4868846;29;44929;-63
2022/08/29 11:06:13;;;;;;;;;;;26.40;45.90;;;;;;4828516;29;45226;-62
2022/08/29 11:08:44;;;;;;;;;;;26.40;45.80;;;;;;4836874;29;45923;-64
2022/08/29 11:11:11;;;;;;;;;;;26.40;45.80;;;;;;4864184;29;45229;-62
2022/08/29 11:13:41;;;;;;;;;;;26.40;45.60;;;;;;4866277;29;45176;-62
2022/08/29 11:16:13;;;;;;;;;;;26.50;45.70;;;;;;4867537;29;46136;-63
2022/08/29 11:18:43;;;;;;;;;;;26.50;45.80;;;;;;4868524;29;45049;-63
2022/08/29 11:21:21;;;;;;;;;;;26.50;45.60;;;;;;4866953;29;44766;-63
2022/08/29 11:23:46;;;;;;;;;;;26.50;45.30;;;;;;4867145;29;45029;-63
2022/08/29 11:26:15;;;;;;;;;;;26.60;45.50;;;;;;4869231;29;44660;-63
2022/08/29 11:28:50;;;;;;;;;;;26.60;45.20;;;;;;4869365;29;45227;-63
2022/08/29 11:31:21;;;;;;;;;;;26.60;45.20;;;;;;4866891;29;45118;-62
2022/08/29 11:33:50;;;;;;;;;;;26.60;44.90;;;;;;4853250;29;44932;-63
2022/08/29 11:36:24;;;;;;;;;;;26.60;44.90;;;;;;4865424;29;44754;-62
2022/08/29 11:38:58;;;;;;;;;;;26.60;44.70;;;;;;4866906;29;45679;-63
2022/08/29 11:41:24;;;;;;;;;;;26.60;44.70;;;;;;4865807;29;44967;-63
2022/08/29 11:43:51;;;;;;;;;;;26.70;45.30;;;;;;4868595;29;45249;-62
2022/08/29 11:46:27;;;;;;;;;;;26.70;44.40;;;;;;4860461;29;46790;-62
2022/08/29 11:48:53;;;;;;;;;;;26.70;44.40;;;;;;4863249;29;46271;-62
2022/08/29 11:51:33;;;;;;;;;;;26.70;44.70;;;;;;4850676;29;45190;-63
2022/08/29 11:54:32;;;;;;;;;;;26.70;44.70;;;;;;4865668;29;45274;-62
2022/08/29 11:57:01;;;;;;;;;;;26.80;44.50;;;;;;4866092;29;45031;-63
2022/08/29 11:59:46;;;;;;;;;;;26.80;44.50;;;;;;4862844;29;45463;-63
2022/08/29 12:02:28;;;;;;;;;;;26.80;44.10;;;;;;4866967;29;44923;-62
2022/08/29 12:04:54;;;;;;;;;;;26.90;44.20;;;;;;4862937;29;45029;-63
2022/08/29 12:07:21;;;;;;;;;;;26.90;43.70;;;;;;4865922;29;45016;-63
2022/08/29 12:09:51;;;;;;;;;;;26.90;43.80;;;;;;4867521;29;45422;-62
2022/08/29 12:12:17;;;;;;;;;;;26.90;43.70;;;;;;4865918;29;45241;-62
2022/08/29 12:14:46;;;;;;;;;;;26.90;43.30;;;;;;4866225;29;45189;-62
2022/08/29 12:17:15;;;;;;;;;;;27.00;43.30;;;;;;4863569;29;45394;-62
2022/08/29 12:20:08;;;;;;;;;;;27.00;43.00;;;;;;4848776;29;45204;-62
2022/08/29 12:22:44;;;;;;;;;;;27.00;43.00;;;;;;4830436;29;45141;-61
2022/08/29 12:25:28;;;;;;;;;;;27.00;42.90;;;;;;4866618;29;45083;-62
2022/08/29 12:28:00;;;;;;;;;;;27.00;42.80;;;;;;4867650;29;44991;-62
2022/08/29 12:30:27;;;;;;;;;;;27.10;42.30;;;;;;4862766;29;45652;-62
2022/08/29 12:33:11;;;;;;;;;;;27.10;41.60;;;;;;4865842;29;45139;-62
2022/08/29 12:35:47;;;;;;;;;;;27.10;41.50;;;;;;4865503;29;45112;-64
2022/08/29 12:38:31;;;;;;;;;;;27.10;41.10;;;;;;4862476;29;45038;-62
2022/08/29 12:41:23;;;;;;;;;;;27.10;41.00;;;;;;4867207;29;45382;-62
2022/08/29 12:43:49;;;;;;;;;;;27.10;40.70;;;;;;4864765;29;45446;-62
2022/08/29 12:46:21;;;;;;;;;;;27.20;41.00;;;;;;4864930;29;44824;-62
2022/08/29 12:48:48;;;;;;;;;;;27.20;41.00;;;;;;4866215;29;45341;-62
2022/08/29 12:51:33;;;;;;;;;;;27.20;40.90;;;;;;4864697;29;45320;-62
2022/08/29 12:53:59;;;;;;;;;;;27.20;41.00;;;;;;4867588;29;45316;-62
2022/08/29 12:56:25;;;;;;;;;;;27.20;41.10;;;;;;4870059;29;45501;-62
2022/08/29 12:58:50;;;;;;;;;;;27.20;41.20;;;;;;4850727;29;45531;-62
2022/08/29 13:01:19;;;;;;;;;;;27.30;41.30;;;;;;4864843;29;45533;-62
2022/08/29 13:03:53;;;;;;;;;;;27.30;41.20;;;;;;4865562;29;44768;-62
2022/08/29 13:06:18;;;;;;;;;;;27.30;41.10;;;;;;4866813;29;45038;-62
2022/08/29 13:08:47;;;;;;;;;;;27.30;41.00;;;;;;4868488;29;45130;-62
2022/08/29 13:11:12;;;;;;;;;;;27.30;41.10;;;;;;4850912;29;46648;-62
2022/08/29 13:13:38;;;;;;;;;;;27.40;41.00;;;;;;4869214;29;45125;-62
2022/08/29 13:16:05;;;;;;;;;;;27.40;41.00;;;;;;4867284;29;45002;-62
2022/08/29 13:18:31;;;;;;;;;;;27.40;41.00;;;;;;4867339;29;44977;-62
2022/08/29 13:21:01;;;;;;;;;;;27.40;40.90;;;;;;4849713;29;45084;-62
2022/08/29 13:23:28;;;;;;;;;;;27.40;40.90;;;;;;4867852;29;44937;-62
2022/08/29 13:26:01;;;;;;;;;;;27.40;41.00;;;;;;4865550;29;45071;-62
2022/08/29 13:28:41;;;;;;;;;;;27.50;41.00;;;;;;4867609;29;44865;-62
2022/08/29 13:31:10;;;;;;;;;;;27.50;41.00;;;;;;4865140;29;45361;-62
2022/08/29 13:33:45;;;;;;;;;;;27.50;41.00;;;;;;4868527;29;44873;-62
2022/08/29 13:36:26;;;;;;;;;;;27.50;41.10;;;;;;4869107;29;44997;-62
2022/08/29 13:39:10;;;;;;;;;;;27.50;41.50;;;;;;4866178;29;45050;-62
2022/08/29 13:41:36;;;;;;;;;;;27.50;41.00;;;;;;4864173;29;45218;-62
2022/08/29 13:44:02;;;;;;;;;;;27.50;41.00;;;;;;4869298;29;45344;-62
2022/08/29 13:46:30;;;;;;;;;;;27.60;40.80;;;;;;4850421;29;45013;-62
2022/08/29 13:48:57;;;;;;;;;;;27.60;40.80;;;;;;4869106;29;45131;-62
2022/08/29 13:51:22;;;;;;;;;;;27.60;40.70;;;;;;4847393;29;45313;-62
2022/08/29 13:53:48;;;;;;;;;;;27.60;40.60;;;;;;4868258;29;45042;-62
2022/08/29 13:56:18;;;;;;;;;;;27.60;40.50;;;;;;4862412;29;45309;-62
2022/08/29 13:58:43;;;;;;;;;;;27.60;40.50;;;;;;4865269;29;45243;-62
2022/08/29 14:01:09;;;;;;;;;;;27.60;40.50;;;;;;4865562;29;45441;-63
2022/08/29 14:03:35;;;;;;;;;;;27.70;40.50;;;;;;4866695;29;45025;-62
2022/08/29 14:06:00;;;;;;;;;;;27.70;40.40;;;;;;4867426;29;45128;-62
2022/08/29 14:08:26;;;;;;;;;;;27.70;40.50;;;;;;4866988;29;45031;-62
2022/08/29 14:10:52;;;;;;;;;;;27.70;40.30;;;;;;4864046;29;45264;-62
2022/08/29 14:13:17;;;;;;;;;;;27.70;40.30;;;;;;4868005;29;45106;-62
2022/08/29 14:15:43;;;;;;;;;;;27.70;40.20;;;;;;4866996;29;45172;-62
2022/08/29 14:18:08;;;;;;;;;;;27.80;40.10;;;;;;4869950;29;45776;-62
2022/08/29 14:20:35;;;;;;;;;;;27.80;40.20;;;;;;4866430;29;45506;-62
2022/08/29 14:23:01;;;;;;;;;;;27.80;40.20;;;;;;4872070;29;45263;-61
2022/08/29 14:25:27;;;;;;;;;;;27.80;40.20;;;;;;4869047;29;45334;-63
2022/08/29 14:27:52;;;;;;;;;;;27.80;40.10;;;;;;4869369;29;45663;-62
2022/08/29 14:30:19;;;;;;;;;;;27.80;39.90;;;;;;4866332;29;45767;-62
2022/08/29 14:32:44;;;;;;;;;;;27.80;39.80;;;;;;4869320;29;44983;-62
2022/08/29 14:35:10;;;;;;;;;;;27.90;39.80;;;;;;4868868;29;44876;-62
2022/08/29 14:37:35;;;;;;;;;;;27.90;39.90;;;;;;4871929;29;45336;-62
2022/08/29 14:40:01;;;;;;;;;;;27.90;39.70;;;;;;4870670;29;45165;-63
2022/08/29 14:42:27;;;;;;;;;;;27.90;39.70;;;;;;4869773;29;44768;-62
2022/08/29 14:44:52;;;;;;;;;;;27.90;39.70;;;;;;4870943;29;45663;-62
2022/08/29 14:47:18;;;;;;;;;;;27.90;39.80;;;;;;4872286;29;45029;-63
2022/08/29 14:49:44;;;;;;;;;;;27.90;39.80;;;;;;4871366;29;46064;-63
2022/08/29 14:52:13;;;;;;;;;;;27.90;39.80;;;;;;4871738;29;45051;-62
2022/08/29 14:54:39;;;;;;;;;;;27.90;39.80;;;;;;4854569;29;45014;-62
2022/08/29 14:57:05;;;;;;;;;;;27.90;39.70;;;;;;4870200;29;45342;-62
2022/08/29 14:59:31;;;;;;;;;;;28.00;39.60;;;;;;4871084;29;45510;-62
2022/08/29 15:01:56;;;;;;;;;;;28.00;39.70;;;;;;4872162;28;45805;-62
2022/08/29 15:04:22;;;;;;;;;;;28.00;39.70;;;;;;4875478;28;45070;-62
2022/08/29 15:06:47;;;;;;;;;;;28.00;39.60;;;;;;4871949;29;44920;-62
2022/08/29 15:09:14;;;;;;;;;;;28.00;39.50;;;;;;4877869;28;45253;-62
2022/08/29 15:11:40;;;;;;;;;;;28.00;39.50;;;;;;4881606;28;44895;-61
2022/08/29 15:14:05;;;;;;;;;;;28.00;39.70;;;;;;4877270;28;45218;-60
2022/08/29 15:16:31;;;;;;;;;;;28.00;39.50;;;;;;4873282;29;45709;-62
2022/08/29 15:18:57;;;;;;;;;;;28.00;39.40;;;;;;4876317;29;45687;-62
2022/08/29 15:21:22;;;;;;;;;;;28.00;39.20;;;;;;4883989;28;44906;-61
2022/08/29 15:23:48;;;;;;;;;;;28.00;39.20;;;;;;4877565;29;44885;-62
2022/08/29 15:26:13;;;;;;;;;;;28.00;39.10;;;;;;4878193;28;44984;-62
2022/08/29 15:28:39;;;;;;;;;;;28.00;39.00;;;;;;4876662;29;45608;-62
2022/08/29 15:31:05;;;;;;;;;;;28.10;39.00;;;;;;4874469;28;45148;-62
2022/08/29 15:33:30;;;;;;;;;;;28.10;39.00;;;;;;4871963;29;44892;-62
2022/08/29 15:35:56;;;;;;;;;;;28.10;39.00;;;;;;4859446;29;45262;-62
2022/08/29 15:38:21;;;;;;;;;;;28.10;39.00;;;;;;4881683;28;45407;-62
2022/08/29 15:40:47;;;;;;;;;;;28.10;39.00;;;;;;4874845;28;44978;-64
2022/08/29 15:43:12;;;;;;;;;;;28.10;39.00;;;;;;4877065;28;44960;-62
2022/08/29 15:45:38;;;;;;;;;;;28.10;39.10;;;;;;4861951;29;44994;-62
2022/08/29 15:48:04;;;;;;;;;;;28.10;39.00;;;;;;4872449;29;45333;-63
2022/08/29 15:50:30;;;;;;;;;;;28.10;39.00;;;;;;4867048;29;44831;-62
2022/08/29 15:52:55;;;;;;;;;;;28.10;38.90;;;;;;4876351;28;44958;-62
2022/08/29 15:55:21;;;;;;;;;;;28.10;38.80;;;;;;4856645;29;44951;-62
2022/08/29 15:57:47;;;;;;;;;;;28.10;38.70;;;;;;4872136;28;45956;-64
2022/08/29 16:00:13;;;;;;;;;;;28.10;38.70;;;;;;4873511;28;45019;-62
2022/08/29 16:02:39;;;;;;;;;;;28.10;38.70;;;;;;4870954;29;45096;-62
2022/08/29 16:05:07;;;;;;;;;;;28.10;38.60;;;;;;4868450;29;45213;-62
2022/08/29 16:07:33;;;;;;;;;;;28.10;38.50;;;;;;4863429;29;45292;-63
2022/08/29 16:10:01;;;;;;;;;;;28.20;38.50;;;;;;4868505;29;44977;-62
2022/08/29 16:12:30;;;;;;;;;;;28.10;38.40;;;;;;4854221;29;45052;-62
2022/08/29 16:14:55;;;;;;;;;;;28.20;38.40;;;;;;4868760;29;45197;-62
2022/08/29 16:17:21;;;;;;;;;;;28.20;38.60;;;;;;4869913;29;45280;-62
2022/08/29 16:19:46;;;;;;;;;;;28.20;38.50;;;;;;4854328;29;45035;-63
2022/08/29 16:22:12;;;;;;;;;;;28.20;38.60;;;;;;4870756;29;45008;-62
2022/08/29 16:24:37;;;;;;;;;;;28.20;38.70;;;;;;4869785;29;44745;-62
2022/08/29 16:27:03;;;;;;;;;;;28.20;38.40;;;;;;4861440;29;45456;-62
2022/08/29 16:29:28;;;;;;;;;;;28.20;38.20;;;;;;4867608;29;45052;-62
2022/08/29 16:31:54;;;;;;;;;;;28.20;38.30;;;;;;4877117;29;45095;-63
2022/08/29 16:34:20;;;;;;;;;;;28.20;38.50;;;;;;4870286;29;45169;-62
2022/08/29 16:36:45;;;;;;;;;;;28.20;38.30;;;;;;4869536;29;45859;-62
2022/08/29 16:39:12;;;;;;;;;;;28.20;38.50;;;;;;4848141;29;45079;-62
2022/08/29 16:41:37;;;;;;;;;;;28.20;38.50;;;;;;4866840;29;44989;-62
2022/08/29 16:44:03;;;;;;;;;;;28.20;38.60;;;;;;4865075;29;45043;-62
2022/08/29 16:46:28;;;;;;;;;;;28.20;38.40;;;;;;4863877;29;46066;-63
2022/08/29 16:48:54;;;;;;;;;;;28.20;38.30;;;;;;4866425;29;45512;-62
2022/08/29 16:51:20;;;;;;;;;;;28.20;38.40;;;;;;4864503;29;45162;-62
2022/08/29 16:53:46;;;;;;;;;;;28.10;38.50;;;;;;4865055;29;45139;-62
2022/08/29 16:56:12;;;;;;;;;;;28.10;38.80;;;;;;4865783;29;46009;-62
2022/08/29 16:59:00;;;;;;;;;;;28.10;38.80;;;;;;4865773;29;44932;-62
2022/08/29 17:01:26;;;;;;;;;;;28.10;39.00;;;;;;4865279;29;45246;-62
2022/08/29 17:03:52;;;;;;;;;;;28.10;39.10;;;;;;4865206;29;45165;-62
2022/08/29 17:06:17;;;;;;;;;;;28.10;39.10;;;;;;4864026;29;45474;-62
2022/08/29 17:18:28;;;;;;;;;;;28.00;38.80;;;;;;4860751;29;46195;-62
2022/08/29 17:20:55;;;;;;;;;;;28.00;39.00;;;;;;4848298;29;45575;-62
2022/08/29 17:23:20;;;;;;;;;;;28.00;39.00;;;;;;4867658;29;44950;-62
2022/08/29 17:25:46;;;;;;;;;;;28.00;39.00;;;;;;4866254;29;46829;-62
2022/08/29 17:28:11;;;;;;;;;;;28.00;39.50;;;;;;4848478;29;44899;-62
2022/08/29 17:30:36;;;;;;;;;;;28.00;39.10;;;;;;4865997;29;45352;-62
2022/08/29 17:33:02;;;;;;;;;;;28.00;39.40;;;;;;4865734;29;45723;-62